createdAt,value
2018-12-18T00:00:49.037Z,74.97
2018-12-18T00:03:17.073Z,74.33
2018-12-18T00:05:45.384Z,77.37
2018-12-18T00:08:13.410Z,82.00
2018-12-18T00:10:46.509Z,72.43
2018-12-18T00:13:14.525Z,75.10
2018-12-18T00:15:42.530Z,80.00
2018-12-18T00:18:10.552Z,85.30
2018-12-18T00:20:38.571Z,72.90
2018-12-18T00:23:06.575Z,78.30
2018-12-18T00:25:34.523Z,78.63
2018-12-18T00:28:03.042Z,78.20
2018-12-18T00:30:31.033Z,80.67
2018-12-18T00:32:59.075Z,81.03
2018-12-18T00:35:27.130Z,71.13
2018-12-18T00:37:55.294Z,70.97
2018-12-18T00:40:23.472Z,83.60
2018-12-18T00:42:51.729Z,74.10
2018-12-18T00:45:19.963Z,84.73
2018-12-18T00:47:48.073Z,68.60
2018-12-18T00:50:16.650Z,73.83
2018-12-18T00:52:44.618Z,78.97
2018-12-18T00:55:12.639Z,78.93
2018-12-18T00:57:40.599Z,76.90
2018-12-18T01:00:09.251Z,72.90
2018-12-18T01:02:37.319Z,72.50
2018-12-18T01:05:06.341Z,74.87
2018-12-18T01:07:34.405Z,72.50
2018-12-18T01:10:02.420Z,68.53
2018-12-18T01:12:31.119Z,72.43
2018-12-18T01:14:59.236Z,82.03
2018-12-18T01:17:28.026Z,67.07
2018-12-18T01:19:56.140Z,72.37
2018-12-18T01:22:24.085Z,75.70
2018-12-18T01:24:52.403Z,70.23
2018-12-18T01:27:20.387Z,77.43
2018-12-18T01:29:48.355Z,71.83
2018-12-18T01:32:16.739Z,76.47
2018-12-18T01:34:45.636Z,73.67
2018-12-18T01:37:13.637Z,73.37
2018-12-18T01:39:41.603Z,79.20
2018-12-18T01:42:09.793Z,72.93
2018-12-18T01:44:38.333Z,83.80
2018-12-18T01:47:06.278Z,74.60
2018-12-18T01:49:34.290Z,69.63
2018-12-18T01:52:02.567Z,74.77
2018-12-18T01:54:30.525Z,73.23
2018-12-18T01:56:58.640Z,70.77
2018-12-18T01:59:26.804Z,72.03
2018-12-18T02:01:54.806Z,76.53
2018-12-18T02:04:22.798Z,70.77
2018-12-18T02:06:50.809Z,78.37
2018-12-18T02:09:18.751Z,74.80
2018-12-18T02:11:47.012Z,75.97
2018-12-18T02:14:14.950Z,77.90
2018-12-18T02:16:42.934Z,74.63
2018-12-18T02:19:10.902Z,75.33
2018-12-18T02:21:39.189Z,77.50
2018-12-18T02:24:07.210Z,75.60
2018-12-18T02:26:36.882Z,88.10
2018-12-18T02:29:04.846Z,76.47
2018-12-18T02:31:32.819Z,79.00
2018-12-18T02:34:00.819Z,73.03
2018-12-18T02:36:28.806Z,82.53
2018-12-18T02:38:56.848Z,78.20
2018-12-18T02:41:24.837Z,77.77
2018-12-18T02:43:52.795Z,85.00
2018-12-18T02:46:20.752Z,78.20
2018-12-18T02:48:48.716Z,78.63
2018-12-18T02:51:16.697Z,76.40
2018-12-18T02:53:44.652Z,76.73
2018-12-18T02:56:12.631Z,74.10
2018-12-18T02:58:40.683Z,76.60
2018-12-18T03:01:09.194Z,75.47
2018-12-18T03:03:37.452Z,71.93
2018-12-18T03:06:05.422Z,77.60
2018-12-18T03:08:33.420Z,73.50
2018-12-18T03:11:01.404Z,77.60
2018-12-18T03:13:29.363Z,74.33
2018-12-18T03:15:57.515Z,73.33
2018-12-18T03:18:25.503Z,73.90
2018-12-18T03:20:53.469Z,80.37
2018-12-18T03:23:22.111Z,78.30
2018-12-18T03:25:50.276Z,79.70
2018-12-18T03:28:18.253Z,80.17
2018-12-18T03:30:46.248Z,81.30
2018-12-18T03:33:14.305Z,71.43
2018-12-18T03:35:42.267Z,79.70
2018-12-18T03:38:10.235Z,83.77
2018-12-18T03:40:42.656Z,84.07
2018-12-18T03:43:10.786Z,86.97
2018-12-18T03:45:38.750Z,82.47
2018-12-18T03:48:06.780Z,85.53
2018-12-18T03:50:34.737Z,88.10
2018-12-18T03:53:02.885Z,86.20
2018-12-18T03:55:30.841Z,89.17
2018-12-18T03:57:58.953Z,79.57
2018-12-18T04:00:26.922Z,94.57
2018-12-18T04:02:54.889Z,84.37
2018-12-18T04:05:23.097Z,83.77
2018-12-18T04:07:51.414Z,96.17
2018-12-18T04:10:19.385Z,83.03
2018-12-18T04:12:47.784Z,78.27
2018-12-18T04:15:15.869Z,89.10
2018-12-18T04:17:43.827Z,82.30
2018-12-18T04:20:11.807Z,80.27
2018-12-18T04:22:39.778Z,91.20
2018-12-18T04:25:07.927Z,90.13
2018-12-18T04:27:35.915Z,83.50
2018-12-18T04:32:38.314Z,80.50
2018-12-18T04:35:06.307Z,90.30
2018-12-18T04:37:34.270Z,81.70
2018-12-18T04:40:02.504Z,88.00
2018-12-18T04:42:30.568Z,89.07
2018-12-18T04:44:58.530Z,90.47
2018-12-18T04:47:26.548Z,77.93
2018-12-18T04:49:54.517Z,88.70
2018-12-18T04:52:22.520Z,84.57
2018-12-18T04:54:50.950Z,81.63
2018-12-18T04:57:19.006Z,94.10
2018-12-18T04:59:47.063Z,73.90
2018-12-18T05:02:15.558Z,80.63
2018-12-18T05:04:49.979Z,88.20
2018-12-18T05:07:14.079Z,66.57
2018-12-18T05:09:42.112Z,77.80
2018-12-18T05:12:10.153Z,78.80
2018-12-18T05:14:38.231Z,78.53
2018-12-18T05:17:06.238Z,75.70
2018-12-18T05:19:34.294Z,78.90
2018-12-18T05:22:02.263Z,78.10
2018-12-18T05:24:30.221Z,83.20
2018-12-18T05:26:58.206Z,86.07
2018-12-18T05:29:26.173Z,82.07
2018-12-18T05:31:54.186Z,79.13
2018-12-18T05:34:23.054Z,83.17
2018-12-18T05:36:51.015Z,81.27
2018-12-18T05:39:19.020Z,79.53
2018-12-18T05:41:47.008Z,77.47
2018-12-18T05:44:15.098Z,90.57
2018-12-18T05:46:43.030Z,89.87
2018-12-18T05:49:11.500Z,84.00
2018-12-18T05:51:39.915Z,81.03
2018-12-18T05:54:07.897Z,85.97
2018-12-18T05:56:35.873Z,80.70
2018-12-18T05:59:03.843Z,82.57
2018-12-18T06:01:32.233Z,92.93
2018-12-18T06:04:00.215Z,92.83
2018-12-18T06:06:28.249Z,100.60
2018-12-18T06:08:56.213Z,85.10
2018-12-18T06:11:24.219Z,88.97
2018-12-18T06:13:52.197Z,82.40
2018-12-18T06:16:20.205Z,91.40
2018-12-18T06:18:48.269Z,91.47
2018-12-18T06:21:16.212Z,84.77
2018-12-18T06:23:44.175Z,94.67
2018-12-18T06:26:12.158Z,96.43
2018-12-18T06:28:40.174Z,90.87
2018-12-18T06:31:08.264Z,89.00
2018-12-18T06:33:36.218Z,95.43
2018-12-18T06:36:04.213Z,88.60
2018-12-18T06:38:32.332Z,98.03
2018-12-18T06:41:00.315Z,88.10
2018-12-18T06:43:28.274Z,96.40
2018-12-18T06:45:56.248Z,87.47
2018-12-18T06:48:25.659Z,100.47
2018-12-18T06:50:53.803Z,90.93
2018-12-18T06:53:21.739Z,94.90
2018-12-18T06:55:49.731Z,95.43
2018-12-18T06:58:17.730Z,88.73
2018-12-18T07:00:45.711Z,88.70
2018-12-18T07:03:13.676Z,101.93
2018-12-18T07:05:41.638Z,94.37
2018-12-18T07:08:09.596Z,83.70
2018-12-18T07:10:37.640Z,112.80
2018-12-18T07:13:05.970Z,91.67
2018-12-18T07:15:33.937Z,114.97
2018-12-18T07:18:01.922Z,96.13
2018-12-18T07:20:29.897Z,99.37
2018-12-18T07:22:59.359Z,94.93
2018-12-18T07:25:27.305Z,103.57
2018-12-18T07:27:55.270Z,95.27
2018-12-18T07:30:23.259Z,99.23
2018-12-18T07:32:51.232Z,98.80
2018-12-18T07:35:23.227Z,107.40
2018-12-18T07:37:49.161Z,109.30
2018-12-18T07:40:17.113Z,108.33
2018-12-18T07:42:45.106Z,109.77
2018-12-18T07:45:13.119Z,101.77
2018-12-18T07:47:41.124Z,104.53
2018-12-18T07:50:09.099Z,114.43
2018-12-18T07:52:37.062Z,101.03
2018-12-18T07:55:05.099Z,104.50
2018-12-18T07:57:33.098Z,110.73
2018-12-18T08:00:01.046Z,112.40
2018-12-18T08:02:29.205Z,102.23
2018-12-18T08:04:57.295Z,109.13
2018-12-18T08:07:25.375Z,110.47
2018-12-18T08:09:53.336Z,107.57
2018-12-18T08:12:23.280Z,100.37
2018-12-18T08:14:51.332Z,105.13
2018-12-18T08:17:19.315Z,105.90
2018-12-18T08:19:48.180Z,99.70
2018-12-18T08:22:16.179Z,109.97
2018-12-18T08:24:44.140Z,107.90
2018-12-18T08:27:12.101Z,106.90
2018-12-18T08:29:40.077Z,92.63
2018-12-18T08:32:09.543Z,105.07
2018-12-18T08:34:37.806Z,95.23
2018-12-18T08:37:05.976Z,108.47
2018-12-18T08:39:33.956Z,105.30
2018-12-18T08:42:01.928Z,96.20
2018-12-18T08:44:29.889Z,94.03
2018-12-18T08:46:57.891Z,122.27
2018-12-18T08:49:25.927Z,95.93
2018-12-18T08:51:53.877Z,100.97
2018-12-18T08:54:21.883Z,100.23
2018-12-18T08:56:49.869Z,102.97
2018-12-18T08:59:17.857Z,101.63
2018-12-18T09:01:45.960Z,106.60
2018-12-18T09:04:13.909Z,105.90
2018-12-18T09:06:41.885Z,103.40
2018-12-18T09:09:09.847Z,113.80
2018-12-18T09:11:37.844Z,112.67
2018-12-18T09:14:05.876Z,113.83
2018-12-18T09:16:39.405Z,101.03
2018-12-18T09:19:07.379Z,114.17
2018-12-18T09:21:35.442Z,104.03
2018-12-18T09:24:03.479Z,103.57
2018-12-18T09:26:31.449Z,100.60
2018-12-18T09:28:59.414Z,114.57
2018-12-18T09:31:27.379Z,102.13
2018-12-18T09:33:55.358Z,98.47
2018-12-18T09:36:23.317Z,103.40
2018-12-18T09:42:00.977Z,94.67
2018-12-18T09:44:29.687Z,104.63
2018-12-18T09:46:57.725Z,107.10
2018-12-18T09:49:25.920Z,97.27
2018-12-18T09:51:54.001Z,98.57
2018-12-18T09:54:21.930Z,96.23
2018-12-18T09:56:51.333Z,103.37
2018-12-18T09:59:19.286Z,100.97
2018-12-18T10:01:47.373Z,94.10
2018-12-18T10:04:15.551Z,104.33
2018-12-18T10:06:45.034Z,95.43
2018-12-18T10:09:13.407Z,95.27
2018-12-18T10:11:41.372Z,105.50
2018-12-18T10:14:09.333Z,94.90
2018-12-18T10:16:37.378Z,91.07
2018-12-18T10:19:05.341Z,98.50
2018-12-18T10:21:33.345Z,88.43
2018-12-18T10:24:01.310Z,95.63
2018-12-18T10:26:29.289Z,88.23
2018-12-18T10:28:57.240Z,86.30
2018-12-18T10:31:26.012Z,90.73
2018-12-18T10:33:53.958Z,86.43
2018-12-18T10:36:21.909Z,92.63
2018-12-18T10:38:50.589Z,104.37
2018-12-18T10:41:18.603Z,78.77
2018-12-18T10:43:46.555Z,87.63
2018-12-18T10:46:14.582Z,88.23
2018-12-18T10:48:42.498Z,95.90
2018-12-18T10:51:10.462Z,90.03
2018-12-18T10:53:38.838Z,92.93
2018-12-18T10:56:06.918Z,88.33
2018-12-18T10:58:34.873Z,83.77
2018-12-18T11:01:08.373Z,89.10
2018-12-18T11:03:37.255Z,85.03
2018-12-18T11:06:09.748Z,90.63
2018-12-18T11:08:35.127Z,97.83
2018-12-18T11:11:04.217Z,91.70
2018-12-18T11:13:32.755Z,91.77
2018-12-18T11:16:00.715Z,93.13
2018-12-18T11:18:29.186Z,98.97
2018-12-18T11:20:57.165Z,100.23
2018-12-18T11:23:25.694Z,88.70
2018-12-18T11:25:53.909Z,97.80
2018-12-18T11:28:21.850Z,89.53
2018-12-18T11:30:49.836Z,93.57
2018-12-18T11:33:17.813Z,101.03
2018-12-18T11:35:45.731Z,90.67
2018-12-18T11:38:14.088Z,84.13
2018-12-18T11:40:42.101Z,90.07
2018-12-18T11:43:10.062Z,83.70
2018-12-18T11:45:38.026Z,91.13
2018-12-18T11:48:06.013Z,82.73
2018-12-18T11:50:33.998Z,90.73
2018-12-18T11:53:01.959Z,98.27
2018-12-18T11:55:29.915Z,91.03
2018-12-18T11:57:57.884Z,90.17
2018-12-18T12:00:25.956Z,90.30
2018-12-18T12:02:53.969Z,89.00
2018-12-18T12:05:21.995Z,79.90
2018-12-18T12:07:49.983Z,87.93
2018-12-18T12:10:18.674Z,83.97
2018-12-18T12:12:46.634Z,83.03
2018-12-18T12:15:14.849Z,82.13
2018-12-18T12:17:42.863Z,84.90
2018-12-18T12:20:11.043Z,93.53
2018-12-18T12:22:38.954Z,69.00
2018-12-18T12:25:08.162Z,74.07
2018-12-18T12:30:34.625Z,81.27
2018-12-18T12:33:02.611Z,83.03
2018-12-18T12:35:30.586Z,83.23
2018-12-18T12:37:59.441Z,79.23
2018-12-18T12:40:27.422Z,79.80
2018-12-18T12:42:55.365Z,77.43
2018-12-18T12:45:23.451Z,72.97
2018-12-18T12:47:52.268Z,74.77
2018-12-18T12:50:20.412Z,83.70
2018-12-18T12:52:48.357Z,75.17
2018-12-18T12:55:16.358Z,78.97
2018-12-18T12:57:44.318Z,81.73
2018-12-18T13:00:12.319Z,81.83
2018-12-18T13:02:40.424Z,90.70
2018-12-18T13:05:08.478Z,77.40
2018-12-18T13:07:36.445Z,75.77
2018-12-18T13:10:04.926Z,67.30
2018-12-18T13:12:33.839Z,65.30
2018-12-18T13:15:01.825Z,71.97
2018-12-18T13:17:29.837Z,74.33
2018-12-18T13:19:58.438Z,72.47
2018-12-18T13:22:27.820Z,72.43
2018-12-18T13:24:55.785Z,71.27
2018-12-18T13:27:23.799Z,66.90
2018-12-18T13:29:52.125Z,64.90
2018-12-18T13:32:20.100Z,72.07
2018-12-18T13:34:48.059Z,71.83
2018-12-18T13:37:16.206Z,69.60
2018-12-18T13:39:44.157Z,66.30
2018-12-18T13:42:13.019Z,63.03
2018-12-18T13:44:41.845Z,70.47
2018-12-18T13:47:10.392Z,64.43
2018-12-18T13:49:38.348Z,67.27
2018-12-18T13:52:06.298Z,68.93
2018-12-18T13:54:34.270Z,68.03
2018-12-18T13:57:02.233Z,59.13
2018-12-18T13:59:30.202Z,67.50
2018-12-18T14:01:58.169Z,66.67
2018-12-18T14:04:26.130Z,61.40
2018-12-18T14:06:54.166Z,68.83
2018-12-18T14:09:22.102Z,65.53
2018-12-18T14:11:50.097Z,63.90
2018-12-18T14:14:18.179Z,58.30
2018-12-18T14:16:46.376Z,61.60
2018-12-18T14:19:14.367Z,64.47
2018-12-18T14:21:42.503Z,61.60
2018-12-18T14:24:10.534Z,59.37
2018-12-18T14:26:39.167Z,63.87
2018-12-18T14:29:07.206Z,65.73
2018-12-18T14:31:35.177Z,66.27
2018-12-18T14:34:03.182Z,71.20
2018-12-18T14:36:31.169Z,69.30
2018-12-18T14:38:59.166Z,70.10
2018-12-18T14:41:27.116Z,68.50
2018-12-18T14:43:55.105Z,60.27
2018-12-18T14:46:23.061Z,64.87
2018-12-18T14:48:51.025Z,64.27
2018-12-18T14:51:19.013Z,65.17
2018-12-18T14:53:47.783Z,63.40
2018-12-18T14:56:15.851Z,60.63
2018-12-18T14:58:43.803Z,68.53
2018-12-18T15:01:12.479Z,58.07
2018-12-18T15:03:40.524Z,57.97
2018-12-18T15:06:08.529Z,65.70
2018-12-18T15:08:36.574Z,64.27
2018-12-18T15:11:04.547Z,63.27
2018-12-18T15:13:32.517Z,64.60
2018-12-18T15:16:00.462Z,67.67
2018-12-18T15:18:28.562Z,61.13
2018-12-18T15:20:56.496Z,65.43
2018-12-18T15:23:25.960Z,68.87
2018-12-18T15:25:53.909Z,71.67
2018-12-18T15:28:21.916Z,58.60
2018-12-18T15:30:50.083Z,60.40
2018-12-18T15:33:18.034Z,62.37
2018-12-18T15:35:46.119Z,62.80
2018-12-18T15:38:14.106Z,60.73
2018-12-18T15:40:42.245Z,55.10
2018-12-18T15:43:10.235Z,64.67
2018-12-18T15:45:38.370Z,73.13
2018-12-18T15:48:06.434Z,61.60
2018-12-18T15:50:34.415Z,61.50
2018-12-18T15:53:02.423Z,58.47
2018-12-18T15:55:30.459Z,59.50
2018-12-18T15:57:58.430Z,61.77
2018-12-18T16:00:26.516Z,61.87
2018-12-18T16:02:54.510Z,60.27
2018-12-18T16:05:22.529Z,60.27
2018-12-18T16:07:50.502Z,63.37
2018-12-18T16:10:18.478Z,71.83
2018-12-18T16:12:46.587Z,57.77
2018-12-18T16:15:14.539Z,58.90
2018-12-18T16:17:42.514Z,58.23
2018-12-18T16:20:10.926Z,60.53
2018-12-18T16:22:39.215Z,64.97
2018-12-18T16:25:07.215Z,57.77
2018-12-18T16:27:35.243Z,66.47
2018-12-18T16:30:04.039Z,67.33
2018-12-18T16:32:32.066Z,65.90
2018-12-18T16:35:00.199Z,68.23
2018-12-18T16:37:28.309Z,66.00
2018-12-18T16:39:56.232Z,58.73
2018-12-18T16:42:24.199Z,58.93
2018-12-18T16:44:52.250Z,56.60
2018-12-18T16:47:20.214Z,56.03
2018-12-18T16:49:48.178Z,62.13
2018-12-18T16:52:16.143Z,62.10
2018-12-18T16:54:44.107Z,66.80
2018-12-18T16:57:13.365Z,61.00
2018-12-18T16:59:41.527Z,59.87
2018-12-18T17:02:10.966Z,65.90
2018-12-18T17:04:39.247Z,63.00
2018-12-18T17:07:07.450Z,70.43
2018-12-18T17:09:37.012Z,59.63
2018-12-18T17:12:05.141Z,68.33
2018-12-18T17:14:34.076Z,59.63
2018-12-18T17:17:02.535Z,58.00
2018-12-18T17:19:30.575Z,54.63
2018-12-18T17:21:58.903Z,50.97
2018-12-18T17:24:26.892Z,59.20
2018-12-18T17:26:54.850Z,57.20
2018-12-18T17:29:22.794Z,55.77
2018-12-18T17:31:50.769Z,59.70
2018-12-18T17:34:18.994Z,52.90
2018-12-18T17:36:46.930Z,58.23
2018-12-18T17:39:14.919Z,54.20
2018-12-18T17:41:43.603Z,58.80
2018-12-18T17:44:11.562Z,54.20
2018-12-18T17:46:39.522Z,49.13
2018-12-18T17:49:07.707Z,59.37
2018-12-18T17:51:36.569Z,51.43
2018-12-18T17:54:05.036Z,49.20
2018-12-18T17:56:33.071Z,51.23
2018-12-18T17:59:01.094Z,49.07
2018-12-18T18:01:29.384Z,51.13
2018-12-18T18:03:57.361Z,54.97
2018-12-18T18:06:25.427Z,49.80
2018-12-18T18:08:53.382Z,53.40
2018-12-18T18:11:21.382Z,47.23
2018-12-18T18:13:49.397Z,52.13
2018-12-18T18:16:17.358Z,51.40
2018-12-18T18:18:45.348Z,45.87
2018-12-18T18:21:13.323Z,48.77
2018-12-18T18:23:41.318Z,47.20
2018-12-18T18:26:10.447Z,41.73
2018-12-18T18:28:39.436Z,41.57
2018-12-18T18:31:07.676Z,43.63
2018-12-18T18:33:35.630Z,48.03
2018-12-18T18:36:03.704Z,43.63
2018-12-18T18:38:31.765Z,42.60
2018-12-18T18:40:59.785Z,49.93
2018-12-18T18:43:27.789Z,51.60
2018-12-18T18:45:55.806Z,48.83
2018-12-18T18:48:24.318Z,46.03
2018-12-18T18:50:53.761Z,44.00
2018-12-18T18:53:21.866Z,44.70
2018-12-18T18:55:49.879Z,48.40
2018-12-18T18:58:17.902Z,52.30
2018-12-18T19:00:45.901Z,46.53
2018-12-18T19:03:13.867Z,48.23
2018-12-18T19:05:41.930Z,48.63
2018-12-18T19:08:09.914Z,48.30
2018-12-18T19:10:37.844Z,43.20
2018-12-18T19:13:05.888Z,53.93
2018-12-18T19:15:34.462Z,49.27
2018-12-18T19:18:02.429Z,52.27
2018-12-18T19:20:30.454Z,51.87
2018-12-18T19:22:58.426Z,51.60
2018-12-18T19:25:26.639Z,49.20
2018-12-18T19:27:54.581Z,52.03
2018-12-18T19:30:22.623Z,48.50
2018-12-18T19:32:50.646Z,56.70
2018-12-18T19:35:19.968Z,51.30
2018-12-18T19:37:48.426Z,48.23
2018-12-18T19:40:16.403Z,45.73
2018-12-18T19:42:44.362Z,49.20
2018-12-18T19:45:12.450Z,40.63
2018-12-18T19:47:41.353Z,45.50
2018-12-18T19:50:09.430Z,44.33
2018-12-18T19:52:37.399Z,43.60
2018-12-18T19:55:05.450Z,44.13
2018-12-18T19:57:33.414Z,51.90
2018-12-18T20:00:01.828Z,42.10
2018-12-18T20:02:29.798Z,50.90
2018-12-18T20:04:57.755Z,54.20
2018-12-18T20:07:25.729Z,50.03
2018-12-18T20:09:53.677Z,51.70
2018-12-18T20:12:21.634Z,48.30
2018-12-18T20:14:49.598Z,47.73
2018-12-18T20:17:18.334Z,59.93
2018-12-18T20:19:46.390Z,49.37
2018-12-18T20:22:14.399Z,58.80
2018-12-18T20:24:42.370Z,57.20
2018-12-18T20:27:10.323Z,52.67
2018-12-18T20:29:38.659Z,51.43
2018-12-18T20:32:06.619Z,53.33
2018-12-18T20:34:34.682Z,52.83
2018-12-18T20:37:02.862Z,61.60
2018-12-18T20:39:30.821Z,48.70
2018-12-18T20:41:58.903Z,61.27
2018-12-18T20:44:26.856Z,49.23
2018-12-18T20:46:54.827Z,50.27
2018-12-18T20:49:22.823Z,51.83
2018-12-18T20:51:50.787Z,53.53
2018-12-18T20:54:18.795Z,51.30
2018-12-18T20:56:47.083Z,51.23
2018-12-18T20:59:15.951Z,46.23
2018-12-18T21:01:43.893Z,42.20
2018-12-18T21:04:11.878Z,39.37
2018-12-18T21:06:39.910Z,41.03
2018-12-18T21:09:09.443Z,42.13
2018-12-18T21:11:38.295Z,42.03
2018-12-18T21:14:06.283Z,39.67
2018-12-18T21:16:34.303Z,43.10
2018-12-18T21:19:02.266Z,40.43
2018-12-18T21:21:30.213Z,39.83
2018-12-18T21:23:58.217Z,40.40
2018-12-18T21:26:26.247Z,39.73
2018-12-18T21:28:54.498Z,39.73
2018-12-18T21:31:22.500Z,44.00
2018-12-18T21:33:50.482Z,41.53
2018-12-18T21:36:20.191Z,40.57
2018-12-18T21:38:48.154Z,40.30
2018-12-18T21:41:16.127Z,39.73
2018-12-18T21:43:44.154Z,44.80
2018-12-18T21:46:12.122Z,39.73
2018-12-18T21:48:40.157Z,40.50
2018-12-18T21:51:08.162Z,44.80
2018-12-18T21:53:36.196Z,52.83
2018-12-18T21:56:04.450Z,45.67
2018-12-18T21:58:32.533Z,45.50
2018-12-18T22:01:00.563Z,57.00
2018-12-18T22:03:28.649Z,45.43
2018-12-18T22:05:56.637Z,50.13
2018-12-18T22:08:24.715Z,45.83
2018-12-18T22:10:52.773Z,48.70
2018-12-18T22:13:20.817Z,48.07
2018-12-18T22:15:48.914Z,51.90
2018-12-18T22:18:16.935Z,49.77
2018-12-18T22:20:44.903Z,51.00
2018-12-18T22:23:12.864Z,48.10
2018-12-18T22:25:40.843Z,54.33
2018-12-18T22:28:08.836Z,54.93
2018-12-18T22:30:36.827Z,53.23
2018-12-18T22:33:04.786Z,48.30
2018-12-18T22:35:32.822Z,49.13
2018-12-18T22:38:00.753Z,46.67
2018-12-18T22:40:28.706Z,50.23
2018-12-18T22:42:56.676Z,53.70
2018-12-18T22:45:24.632Z,56.60
2018-12-18T22:47:52.594Z,51.70
2018-12-18T22:50:20.578Z,51.53
2018-12-18T22:52:49.159Z,49.50
2018-12-18T22:55:17.216Z,51.50
2018-12-18T22:57:45.179Z,49.00
2018-12-18T23:00:15.066Z,50.43
2018-12-18T23:02:43.218Z,50.37
2018-12-18T23:05:11.232Z,60.03
2018-12-18T23:07:39.210Z,53.23
2018-12-18T23:10:08.474Z,46.13
2018-12-18T23:12:36.487Z,49.97
2018-12-18T23:15:05.274Z,50.40
2018-12-18T23:17:33.299Z,47.13
2018-12-18T23:20:01.290Z,46.77
2018-12-18T23:22:30.185Z,46.80
2018-12-18T23:24:58.757Z,54.97
2018-12-18T23:27:26.727Z,48.80
2018-12-18T23:29:54.690Z,52.10
2018-12-18T23:32:23.170Z,51.77
2018-12-18T23:34:51.122Z,46.13
2018-12-18T23:37:19.112Z,53.63
2018-12-18T23:39:47.178Z,48.57
2018-12-18T23:42:15.191Z,41.60
2018-12-18T23:44:43.178Z,45.13
2018-12-18T23:47:11.131Z,52.20
2018-12-18T23:49:39.523Z,54.03
2018-12-18T23:52:07.478Z,48.33
2018-12-18T23:54:35.447Z,51.90
2018-12-18T23:57:03.429Z,45.77
2018-12-18T23:59:31.602Z,48.47
